createdAt,value
2023-03-25T00:00:12.770Z,8.50
2023-03-25T00:02:53.651Z,8.70
2023-03-25T00:05:28.658Z,8.80
2023-03-25T00:10:41.897Z,8.80
2023-03-25T00:13:12.914Z,8.70
2023-03-25T00:15:45.637Z,8.70
2023-03-25T00:18:13.128Z,8.50
2023-03-25T00:20:41.409Z,8.40
2023-03-25T00:23:09.136Z,8.40
2023-03-25T00:25:36.947Z,8.00
2023-03-25T00:31:26.353Z,7.90
2023-03-25T00:33:59.788Z,8.00
2023-03-25T00:36:27.044Z,8.00
2023-03-25T00:39:03.765Z,8.10
2023-03-25T00:41:42.950Z,8.00
2023-03-25T00:44:13.795Z,8.00
2023-03-25T00:46:46.598Z,7.80
2023-03-25T00:49:17.442Z,7.80
2023-03-25T00:56:59.608Z,7.70
2023-03-25T00:59:26.814Z,7.60
2023-03-25T01:01:58.287Z,7.40
2023-03-25T01:04:42.411Z,7.20
2023-03-25T01:07:16.769Z,7.30
2023-03-25T01:09:55.118Z,7.20
2023-03-25T01:12:29.284Z,7.10
2023-03-25T01:15:00.861Z,7.30
2023-03-25T01:33:37.453Z,7.60
2023-03-25T01:36:16.364Z,7.40
2023-03-25T01:38:58.079Z,7.20
2023-03-25T01:41:48.534Z,7.40
2023-03-25T01:44:56.024Z,7.60
2023-03-25T01:47:26.120Z,7.40
2023-03-25T01:49:58.116Z,7.50
2023-03-25T01:55:22.809Z,7.70
2023-03-25T01:57:55.052Z,8.30
2023-03-25T02:00:22.996Z,8.20
2023-03-25T02:03:09.380Z,8.40
2023-03-25T02:05:44.002Z,8.40
2023-03-25T02:08:12.226Z,8.40
2023-03-25T02:10:40.867Z,8.40
2023-03-25T02:18:34.752Z,8.40
2023-03-25T02:21:52.980Z,8.10
2023-03-25T02:24:53.891Z,8.20
2023-03-25T02:27:33.208Z,8.30
2023-03-25T02:30:37.122Z,8.40
2023-03-25T02:33:41.508Z,8.60
2023-03-25T02:38:53.836Z,8.50
2023-03-25T02:41:37.327Z,8.30
2023-03-25T02:44:12.131Z,8.40
2023-03-25T02:46:46.223Z,8.50
2023-03-25T02:49:19.967Z,8.50
2023-03-25T02:51:53.902Z,8.50
2023-03-25T02:54:42.449Z,8.40
2023-03-25T03:02:19.136Z,8.50
2023-03-25T03:04:51.930Z,8.70
2023-03-25T03:07:25.194Z,8.80
2023-03-25T03:09:59.614Z,8.80
2023-03-25T03:12:40.502Z,8.90
2023-03-25T03:15:23.430Z,8.70
2023-03-25T03:18:03.584Z,8.40
2023-03-25T03:25:45.983Z,8.40
2023-03-25T03:28:24.098Z,8.50
2023-03-25T03:30:58.807Z,8.50
2023-03-25T03:33:32.697Z,8.60
2023-03-25T03:36:07.740Z,8.90
2023-03-25T03:38:40.167Z,8.90
2023-03-25T03:44:29.472Z,8.60
2023-03-25T03:47:03.339Z,8.60
2023-03-25T03:49:37.711Z,8.70
2023-03-25T03:52:11.736Z,8.70
2023-03-25T03:54:55.666Z,8.80
2023-03-25T03:57:27.525Z,8.80
2023-03-25T04:00:05.046Z,8.80
2023-03-25T04:07:26.345Z,8.70
2023-03-25T04:10:17.064Z,8.70
2023-03-25T04:12:48.166Z,8.60
2023-03-25T04:15:18.165Z,8.70
2023-03-25T04:18:06.285Z,8.60
2023-03-25T04:20:44.566Z,8.60
2023-03-25T04:23:17.665Z,8.00
2023-03-25T04:25:50.685Z,7.80
2023-03-25T04:36:46.344Z,8.20
2023-03-25T04:39:21.936Z,7.80
2023-03-25T04:41:57.487Z,8.00
2023-03-25T04:44:30.711Z,7.90
2023-03-25T04:47:04.010Z,7.90
2023-03-25T04:49:36.446Z,8.10
2023-03-25T04:52:06.296Z,7.90
2023-03-25T04:54:33.738Z,8.00
2023-03-25T05:02:12.967Z,8.00
2023-03-25T05:04:41.552Z,8.10
2023-03-25T05:07:09.397Z,8.00
2023-03-25T05:09:36.974Z,8.00
2023-03-25T05:12:04.606Z,8.00
2023-03-25T05:14:32.353Z,8.00
2023-03-25T05:17:00.003Z,8.00
2023-03-25T05:23:03.246Z,7.90
2023-03-25T05:25:33.914Z,7.90
2023-03-25T05:28:06.999Z,8.00
2023-03-25T05:30:44.520Z,7.80
2023-03-25T05:33:28.020Z,7.90
2023-03-25T05:35:58.809Z,8.00
2023-03-25T05:38:32.732Z,7.40
2023-03-25T05:46:21.376Z,7.30
2023-03-25T05:48:52.009Z,7.50
2023-03-25T05:51:22.148Z,7.40
2023-03-25T05:53:55.510Z,7.60
2023-03-25T05:56:38.580Z,7.50
2023-03-25T05:59:06.280Z,7.30
2023-03-25T06:01:36.764Z,7.40
2023-03-25T06:09:08.108Z,7.50
2023-03-25T06:11:40.916Z,7.90
2023-03-25T06:14:08.695Z,8.00
2023-03-25T06:16:39.041Z,7.80
2023-03-25T06:19:09.141Z,7.70
2023-03-25T06:21:43.047Z,7.70
2023-03-25T06:26:59.148Z,8.00
2023-03-25T06:29:42.116Z,7.80
2023-03-25T06:32:25.478Z,7.90
2023-03-25T06:34:55.078Z,8.00
2023-03-25T06:37:27.826Z,7.80
2023-03-25T06:39:56.430Z,7.90
2023-03-25T06:42:37.569Z,7.80
2023-03-25T06:50:08.624Z,8.00
2023-03-25T06:52:36.955Z,8.20
2023-03-25T06:55:05.356Z,8.10
2023-03-25T06:57:33.984Z,8.00
2023-03-25T07:00:11.896Z,8.00
2023-03-25T07:02:39.330Z,8.10
2023-03-25T07:05:10.173Z,8.30
2023-03-25T07:13:19.507Z,8.50
2023-03-25T07:15:47.132Z,8.80
2023-03-25T07:18:14.387Z,8.90
2023-03-25T07:20:45.903Z,8.90
2023-03-25T07:23:15.636Z,8.80
2023-03-25T07:25:42.949Z,8.80
2023-03-25T07:28:13.851Z,9.00
2023-03-25T07:35:03.316Z,9.00
2023-03-25T07:37:30.543Z,9.00
2023-03-25T07:39:57.835Z,8.80
2023-03-25T07:42:24.958Z,8.90
2023-03-25T07:44:58.549Z,8.70
2023-03-25T07:47:26.133Z,8.70
2023-03-25T07:49:55.727Z,9.00
2023-03-25T07:57:23.683Z,9.10
2023-03-25T07:59:50.537Z,9.20
2023-03-25T08:02:22.645Z,9.20
2023-03-25T08:04:49.931Z,9.20
2023-03-25T08:07:17.399Z,9.30
2023-03-25T08:09:46.829Z,9.10
2023-03-25T08:12:16.021Z,9.30
2023-03-25T08:19:49.333Z,9.40
2023-03-25T08:22:16.613Z,9.40
2023-03-25T08:24:44.114Z,9.40
2023-03-25T08:27:17.090Z,9.40
2023-03-25T08:29:44.650Z,9.30
2023-03-25T08:32:12.692Z,9.20
2023-03-25T08:34:42.156Z,9.50
2023-03-25T08:40:01.992Z,9.50
2023-03-25T08:42:31.581Z,9.40
2023-03-25T08:45:00.726Z,9.60
2023-03-25T08:47:28.030Z,9.80
2023-03-25T08:49:57.664Z,9.90
2023-03-25T08:52:26.075Z,10.00
2023-03-25T08:54:53.572Z,9.90
2023-03-25T09:02:26.819Z,10.00
2023-03-25T09:04:54.734Z,10.10
2023-03-25T09:07:22.595Z,10.00
2023-03-25T09:09:50.365Z,9.80
2023-03-25T09:12:21.008Z,10.00
2023-03-25T09:14:51.414Z,10.10
2023-03-25T09:17:22.623Z,10.20
2023-03-25T09:22:32.400Z,10.20
2023-03-25T09:25:05.052Z,10.20
2023-03-25T09:27:41.193Z,9.80
2023-03-25T09:30:21.452Z,8.50
2023-03-25T09:32:52.195Z,7.30
2023-03-25T09:35:21.135Z,6.90
2023-03-25T09:38:11.241Z,6.60
2023-03-25T09:44:05.893Z,6.10
2023-03-25T09:46:40.771Z,6.10
2023-03-25T09:49:36.816Z,6.20
2023-03-25T09:52:19.724Z,6.10
2023-03-25T09:55:03.970Z,6.30
2023-03-25T09:57:42.286Z,6.40
2023-03-25T10:00:20.839Z,6.40
2023-03-25T10:08:15.530Z,6.80
2023-03-25T10:10:49.261Z,6.70
2023-03-25T10:13:22.712Z,6.80
2023-03-25T10:16:06.394Z,6.60
2023-03-25T10:18:51.231Z,6.80
2023-03-25T10:21:33.372Z,6.90
2023-03-25T10:30:03.149Z,7.80
2023-03-25T10:32:37.684Z,8.00
2023-03-25T10:35:10.261Z,7.90
2023-03-25T10:37:41.501Z,8.10
2023-03-25T10:40:21.777Z,8.20
2023-03-25T10:43:07.258Z,8.30
2023-03-25T10:51:17.556Z,8.80
2023-03-25T10:53:52.746Z,8.30
2023-03-25T10:56:27.336Z,8.50
2023-03-25T10:58:58.271Z,8.70
2023-03-25T11:01:35.983Z,9.00
2023-03-25T11:04:06.885Z,9.20
2023-03-25T11:06:39.833Z,9.30
2023-03-25T11:14:01.020Z,8.80
2023-03-25T11:16:32.773Z,8.60
2023-03-25T11:19:03.685Z,8.70
2023-03-25T11:21:33.376Z,8.80
2023-03-25T11:24:05.779Z,8.90
2023-03-25T11:26:43.152Z,9.10
2023-03-25T11:29:18.315Z,9.20
2023-03-25T11:37:16.155Z,9.60
2023-03-25T11:39:55.492Z,9.60
2023-03-25T11:42:34.612Z,9.50
2023-03-25T11:45:04.532Z,9.40
2023-03-25T11:47:36.980Z,9.50
2023-03-25T11:50:07.505Z,9.60
2023-03-25T11:52:43.197Z,9.60
2023-03-25T12:00:32.910Z,10.10
2023-03-25T12:03:02.774Z,10.30
2023-03-25T12:05:34.898Z,9.90
2023-03-25T12:08:15.324Z,9.90
2023-03-25T12:10:53.353Z,10.40
2023-03-25T12:13:42.218Z,10.30
2023-03-25T12:22:18.664Z,10.10
2023-03-25T12:25:15.044Z,10.60
2023-03-25T12:27:57.838Z,10.60
2023-03-25T12:30:36.528Z,10.60
2023-03-25T12:33:22.578Z,10.60
2023-03-25T12:36:03.931Z,10.40
2023-03-25T12:38:46.034Z,10.10
2023-03-25T12:46:30.453Z,9.50
2023-03-25T12:49:11.811Z,10.30
2023-03-25T12:51:49.832Z,10.40
2023-03-25T12:54:40.602Z,10.50
2023-03-25T12:57:19.782Z,11.10
2023-03-25T13:00:14.341Z,11.20
2023-03-25T13:07:52.421Z,10.40
2023-03-25T13:10:23.150Z,10.20
2023-03-25T13:12:54.177Z,10.20
2023-03-25T13:15:27.215Z,10.10
2023-03-25T13:18:08.989Z,10.60
2023-03-25T13:20:45.946Z,11.00
2023-03-25T13:23:22.055Z,11.10
2023-03-25T13:30:53.881Z,10.50
2023-03-25T13:33:27.208Z,10.40
2023-03-25T13:36:04.423Z,10.50
2023-03-25T13:38:39.870Z,10.30
2023-03-25T13:41:14.687Z,10.60
2023-03-25T13:43:52.710Z,10.90
2023-03-25T13:54:27.493Z,11.10
2023-03-25T13:57:29.857Z,10.70
2023-03-25T14:00:37.479Z,10.80
2023-03-25T14:03:33.515Z,11.10
2023-03-25T14:06:45.451Z,11.10
2023-03-25T14:17:56.134Z,10.60
2023-03-25T14:20:27.322Z,11.00
2023-03-25T14:23:02.221Z,11.30
2023-03-25T14:25:37.911Z,11.80
2023-03-25T14:28:11.186Z,11.90
2023-03-25T14:30:39.668Z,11.70
2023-03-25T14:33:10.420Z,11.20
2023-03-25T14:41:12.995Z,11.40
2023-03-25T14:43:45.551Z,11.90
2023-03-25T14:46:20.363Z,12.00
2023-03-25T14:48:56.186Z,11.90
2023-03-25T14:51:46.175Z,11.40
2023-03-25T14:54:31.828Z,11.70
2023-03-25T14:57:08.783Z,11.90
2023-03-25T15:04:39.848Z,11.60
2023-03-25T15:07:13.675Z,11.30
2023-03-25T15:09:54.127Z,11.30
2023-03-25T15:12:25.862Z,11.60
2023-03-25T15:14:56.624Z,11.60
2023-03-25T15:17:44.244Z,11.70
2023-03-25T15:28:14.826Z,12.00
2023-03-25T15:31:16.750Z,12.00
2023-03-25T15:34:09.276Z,11.80
2023-03-25T15:37:04.707Z,11.80
2023-03-25T15:39:58.760Z,11.90
2023-03-25T15:49:12.438Z,11.50
2023-03-25T15:52:02.534Z,11.30
2023-03-25T15:54:36.267Z,11.30
2023-03-25T15:57:09.911Z,11.30
2023-03-25T15:59:43.611Z,11.50
2023-03-25T16:02:24.148Z,11.20
2023-03-25T16:04:58.592Z,11.00
2023-03-25T16:12:10.566Z,11.20
2023-03-25T16:14:45.189Z,11.20
2023-03-25T16:17:18.693Z,11.30
2023-03-25T16:19:54.950Z,11.50
2023-03-25T16:22:27.463Z,11.60
2023-03-25T16:24:59.899Z,11.40
2023-03-25T16:27:34.286Z,11.40
2023-03-25T16:35:17.744Z,11.20
2023-03-25T16:37:48.068Z,11.00
2023-03-25T16:40:29.965Z,10.90
2023-03-25T16:43:10.619Z,11.00
2023-03-25T16:45:47.480Z,11.30
2023-03-25T16:48:23.329Z,11.40
2023-03-25T16:51:14.434Z,11.20
2023-03-25T16:59:06.268Z,11.10
2023-03-25T17:01:40.056Z,11.70
2023-03-25T17:04:16.307Z,11.40
2023-03-25T17:06:52.609Z,11.30
2023-03-25T17:09:27.317Z,11.30
2023-03-25T17:12:00.396Z,11.00
2023-03-25T17:14:36.776Z,11.40
2023-03-25T17:22:24.147Z,11.20
2023-03-25T17:24:56.158Z,10.70
2023-03-25T17:27:37.450Z,10.40
2023-03-25T17:30:24.028Z,10.20
2023-03-25T17:32:56.133Z,10.30
2023-03-25T17:35:29.153Z,10.60
2023-03-25T17:41:00.891Z,10.20
2023-03-25T17:43:33.918Z,10.40
2023-03-25T17:46:04.463Z,10.40
2023-03-25T17:48:39.577Z,10.40
2023-03-25T17:51:10.550Z,10.60
2023-03-25T17:53:40.366Z,10.70
2023-03-25T17:56:17.436Z,10.50
2023-03-25T18:06:44.468Z,10.30
2023-03-25T18:09:22.884Z,10.20
2023-03-25T18:11:53.160Z,9.90
2023-03-25T18:14:21.976Z,9.90
2023-03-25T18:16:53.269Z,10.10
2023-03-25T18:19:30.566Z,10.10
2023-03-25T18:27:06.306Z,9.90
2023-03-25T18:29:37.007Z,9.80
2023-03-25T18:32:05.601Z,9.90
2023-03-25T18:34:35.689Z,9.80
2023-03-25T18:37:05.210Z,9.90
2023-03-25T18:39:43.124Z,9.70
2023-03-25T18:42:11.959Z,9.70
2023-03-25T18:44:42.642Z,9.80
2023-03-25T18:51:18.608Z,9.90
2023-03-25T18:53:49.993Z,9.80
2023-03-25T18:56:23.284Z,9.80
2023-03-25T18:58:53.664Z,9.80
2023-03-25T19:01:25.048Z,9.90
2023-03-25T19:04:01.836Z,9.70
2023-03-25T19:06:32.596Z,9.80
2023-03-25T19:13:18.298Z,9.50
2023-03-25T19:15:48.765Z,9.20
2023-03-25T19:18:21.182Z,9.30
2023-03-25T19:20:50.318Z,9.00
2023-03-25T19:23:18.779Z,9.10
2023-03-25T19:25:50.379Z,9.30
2023-03-25T19:28:26.212Z,9.30
2023-03-25T19:35:41.639Z,8.80
2023-03-25T19:38:12.409Z,8.90
2023-03-25T19:40:40.584Z,8.50
2023-03-25T19:43:09.646Z,8.40
2023-03-25T19:45:39.085Z,8.50
2023-03-25T19:48:13.456Z,8.60
2023-03-25T19:53:32.992Z,8.50
2023-03-25T19:56:05.404Z,8.30
2023-03-25T19:58:35.047Z,8.40
2023-03-25T20:01:07.343Z,8.20
2023-03-25T20:03:38.238Z,8.50
2023-03-25T20:06:07.955Z,8.10
2023-03-25T20:14:48.176Z,8.30
2023-03-25T20:17:18.835Z,8.10
2023-03-25T20:19:47.593Z,8.20
2023-03-25T20:22:24.956Z,8.20
2023-03-25T20:24:56.792Z,8.20
2023-03-25T20:27:28.716Z,8.20
2023-03-25T20:29:59.507Z,8.20
2023-03-25T20:37:37.903Z,8.10
2023-03-25T20:40:11.902Z,8.00
2023-03-25T20:42:45.387Z,8.30
2023-03-25T20:45:18.040Z,8.50
2023-03-25T20:47:48.481Z,8.50
2023-03-25T20:50:27.942Z,8.30
2023-03-25T20:53:01.973Z,8.40
2023-03-25T21:00:46.009Z,8.60
2023-03-25T21:03:22.681Z,8.30
2023-03-25T21:05:56.267Z,8.20
2023-03-25T21:08:30.007Z,8.20
2023-03-25T21:11:07.164Z,8.40
2023-03-25T21:13:38.350Z,8.40
2023-03-25T21:16:12.195Z,8.40
2023-03-25T21:23:50.920Z,8.20
2023-03-25T21:26:23.261Z,8.30
2023-03-25T21:28:58.958Z,8.40
2023-03-25T21:31:31.589Z,8.40
2023-03-25T21:34:02.594Z,8.40
2023-03-25T21:36:46.557Z,8.70
2023-03-25T21:39:23.756Z,8.40
2023-03-25T21:46:58.164Z,8.30
2023-03-25T21:49:32.668Z,8.30
2023-03-25T21:52:04.703Z,8.30
2023-03-25T21:54:35.259Z,8.30
2023-03-25T21:57:07.542Z,8.30
2023-03-25T21:59:47.046Z,8.60
2023-03-25T22:02:17.297Z,8.50
2023-03-25T22:09:53.038Z,8.50
2023-03-25T22:12:21.622Z,8.40
2023-03-25T22:14:53.003Z,8.40
2023-03-25T22:17:25.855Z,8.30
2023-03-25T22:20:04.816Z,8.10
2023-03-25T22:22:36.948Z,8.00
2023-03-25T22:25:13.570Z,7.80
2023-03-25T22:32:41.160Z,7.70
2023-03-25T22:35:13.660Z,7.80
2023-03-25T22:37:42.391Z,7.90
2023-03-25T22:40:12.259Z,8.00
2023-03-25T22:42:47.301Z,7.90
2023-03-25T22:45:14.427Z,8.20
2023-03-25T22:47:49.299Z,8.30
2023-03-25T22:56:50.001Z,8.00
2023-03-25T22:59:19.016Z,8.00
2023-03-25T23:01:47.048Z,8.10
2023-03-25T23:04:15.007Z,8.30
2023-03-25T23:06:51.247Z,7.90
2023-03-25T23:09:43.215Z,7.80
2023-03-25T23:12:19.852Z,8.00
2023-03-25T23:19:53.106Z,7.90
2023-03-25T23:22:21.053Z,7.60
2023-03-25T23:24:51.274Z,7.70
2023-03-25T23:27:20.418Z,7.80
2023-03-25T23:29:47.824Z,7.80
2023-03-25T23:32:17.626Z,7.70
2023-03-25T23:34:45.549Z,7.90
2023-03-25T23:42:54.293Z,8.00
2023-03-25T23:45:29.488Z,8.10
2023-03-25T23:47:57.027Z,8.20
2023-03-25T23:50:26.342Z,8.30
2023-03-25T23:52:55.694Z,8.30
2023-03-25T23:55:25.551Z,8.40
2023-03-25T23:57:54.832Z,8.00
